DeKalb Peachtree Airport
KPDK : rendu visible

Aérodrome :











RETROUVEZ-NOUS SUR...

 
LOGIN :

S'inscrire | Disclaimer

   EN    FR    IT 

 









Légende :    VFR   VFR Marginal   IFR   IFR Intensif   IFR Très Intensif
Visi : 
Plafond : 
>= 8 km
>= 3000ft
5 à 8 km
1000 à 3000 ft
1500m à 5 km
500 à 1000 ft
800 à 1500m
200 à 500 ft
< 800m
< 200 ft
Symboles :   Orages  Brouillard  Fortes neiges  Fortes précipitations  Vent > 20 kt






- Altitude de l'aérodrome : 1003 ft


KPDK - DeKalb Peachtree

DERNIER METAR :
  • 181742Z 00000KT 2 1/2SM -RA BKN021 OVC035 06/03 A3032 RMK AO2 RAB10E21B26 P0003 T00610033

METARs EXPIRÉS :
  • 181724Z 00000KT 10SM BKN021 OVC044 07/01 A3033 RMK AO2 RAB10E21 P0000 T00720011
  • 181716Z 00000KT 10SM -RA SCT021 OVC041 07/01 A3032 RMK AO2 RAB10 P0000 T00720011
  • 181653Z VRB04KT 10SM BKN021 OVC042 07/01 A3033 RMK AO2 SLP280 T00670011
  • 181553Z VRB05KT 10SM BKN021 OVC025 07/00 A3036 RMK AO2 SLP291 T00670000
  • 181453Z VRB06KT 10SM OVC018 06/M01 A3037 RMK AO2 SLP295 T00561011 58017

TAF KPDK
Valide du 18 à 12h jusqu'au 19 à 12h UTC


181123Z 1812/1912 10006KT P6SM OVC024
TEMPO 1814/1818 4SM -SHRA BR OVC008
FM181800 14007KT P6SM -SHRA OVC010
FM182100 17007KT 4SM -SHRA BR OVC007
FM190100 20005KT 3SM -SHRA BR OVC005
FM190500 29008KT 4SM BR OVC006
FM191000 31011KT P6SM BKN120



MET'MAP, la Météo Aéronautique d'un coup d'oeil ! - Copyright ORBIFLY Décembre 2007 - Disclaimer

ORBIFLY MET'MAP TEAM :

Programmation & Développement : Alexandra Zaïnal
Sur une idée originale de : Baudouin d'Aumeries
Assistance à la programmation : Marc-Olivier Méhu
Soutien technique & logistique : Manuel Goepfert

Contact : metmap@orbifly.com




SOURCES & CREDITS :

   NOAA       Earth
Advisory